Yazoo City, MS

1:06 PM CST on March 05, 2015 (GMT -0600)
Hawkins | Change Station
CLOSE
Current Station
Airport
Location: Jackson Hawkins Field,
Elevation: 341 ft
Nearby Weather Stations
Active Advisory: Flood Warning Active Notice: Local Storm Report

Elev 341 ft 32.33 °N, 90.22 °W | Updated 13 minutes ago

Overcast
Overcast
28 °F
Feels Like 18 °F
N
13
Wind Variable Wind from NNW
Gusts 22 mph

Today
High -- | Low -- °F
--% Chance of Precip.
Yesterday
High -- | Low -- °F
Precip. -- in
6:24 AM 6:01 PM
Full, 100% visible
Pressure 30.42 in
Visibility 10.0 miles
Clouds Mostly Cloudy 1400 ft
Overcast 2000 ft
Windchill 18 °F
Dew Point 24 °F
Humidity 85%
Rainfall 0.26 in
Snow Depth Not available.
UV 2 out of 12
Pollen .20 out of 12
Air Quality Not available.
Flu Activity Not available.
METAR KHKS 051853Z AUTO 33011G19KT 10SM BKN014 OVC020 M02/M04 A3042 RMK AO2 SLP299 T10221044

More Conditions Fewer Conditions

Pressure 30.42 in
Visibility 10.0 miles
Clouds Mostly Cloudy 1400 ft
Overcast 2000 ft
Windchill 18 °F
Dew Point 24 °F
Humidity 85%
Rainfall 0.26 in
Snow Depth Not available.
UV 2 out of 12
Pollen .20 out of 12
Air Quality Not available.
Flu Activity Not available.
METAR KHKS 051853Z AUTO 33011G19KT 10SM BKN014 OVC020 M02/M04 A3042 RMK AO2 SLP299 T10221044

More Conditions Fewer Conditions

10-Day Weather Forecast

Almanac

Astronomy

Mar. 05, 2015 Rise Set
Actual Time
Civil Twilight
Nautical Twilight
Astronomical Twilight
Moon
Length of Visible Light
Length of Day
Tomorrow will be .
, % of the Moon is Illuminated

Today's Extremes

State Highs State Lows

Community

WunderPhotos

Upload Photos

1,802,914 photos uploaded!

WunderBlogs® & News

Nearby

Air Quality

  Air Quality AQ Index Pollutant
Not available.

Snow Depth

Station Depth Elevation

Earthquake Activity

City Distance Mag. Time & Date
Minimum magnitude displayed is 2.5.

Coastal Water Temperatures

Place Temperature

Nearby Weather Stations

Flood Warning
Statement as of 8:09 AM CST on March 05, 2015

... Flood Warning extended until Tuesday evening...

The Flood Warning continues for
the Big Black River near Bentonia
* until Tuesday evening.
* At 7:00 am Thursday the stage was 24.1 feet.
* Minor flooding is occurring and minor flooding is forecast.
* Flood stage is 22.0 feet.
* Forecast... the river will rise to near 24.5 feet by this
evening.


              Flood observed forecast 7 am crest
location stg stg day time Fri Sat sun crest time date

Lower Big Black River
Bentonia 22 24.1 Thu 07 am 24.3 23.6 23.0 24.5 06 PM 03/05




Lat... Lon 3256 9064 3281 9012 3291 9006 3285 8987
      3272 8996 3245 9052